Time;durP1;ratioP1;P1;durP2;ratioP2;P2;SDS_P1;SDS_P2;PMS_P1;PMS_P2;Temp;Humidity;BMP_temperature;BMP_pressure;BME280_temperature;BME280_humidity;BME280_pressure;Samples;Min_cycle;Max_cycle;Signal;HPM_P1;HPM_P2
2022/06/22 00:04:41;;;;;;;4.10;1.93;;;23.40;25.60;;;;;;10431737;28;20228;-72
2022/06/22 00:09:47;;;;;;;1.93;1.73;;;23.40;26.00;;;;;;10433067;28;20229;-71
2022/06/22 00:14:55;;;;;;;1.87;1.60;;;23.30;25.60;;;;;;10435004;28;20217;-72
2022/06/22 00:20:00;;;;;;;2.40;2.10;;;23.30;26.20;;;;;;10429703;28;21035;-72
2022/06/22 00:25:12;;;;;;;1.83;1.73;;;23.30;26.30;;;;;;10430291;28;20251;-72
2022/06/22 00:30:30;;;;;;;1.97;1.80;;;23.30;26.80;;;;;;10433137;28;20728;-72
2022/06/22 00:35:55;;;;;;;1.77;1.67;;;23.20;26.40;;;;;;10430888;28;20228;-72
2022/06/22 00:41:03;;;;;;;4.90;1.90;;;23.20;26.20;;;;;;10428197;28;20312;-72
2022/06/22 00:46:15;;;;;;;2.10;1.90;;;23.10;26.20;;;;;;10433129;28;20230;-72
2022/06/22 00:51:23;;;;;;;2.10;1.80;;;23.00;27.30;;;;;;10433933;28;20225;-71
2022/06/22 00:56:42;;;;;;;2.03;1.80;;;23.10;27.40;;;;;;10432672;28;20229;-72
2022/06/22 01:01:51;;;;;;;2.27;1.90;;;23.10;27.40;;;;;;10427779;23;20229;-71
2022/06/22 01:06:59;;;;;;;2.93;2.00;;;23.10;27.40;;;;;;10402365;28;20218;-71
2022/06/22 01:17:31;;;;;;;2.03;1.70;;;23.00;26.90;;;;;;10438698;28;20225;-71
2022/06/22 01:22:52;;;;;;;2.03;1.90;;;22.90;27.30;;;;;;10436890;28;20619;-71
2022/06/22 01:27:56;;;;;;;2.10;1.90;;;22.90;27.50;;;;;;10443829;28;20244;-70
2022/06/22 01:33:00;;;;;;;2.10;1.90;;;22.90;27.30;;;;;;10437289;28;20726;-70
2022/06/22 01:38:13;;;;;;;2.07;1.87;;;23.00;27.30;;;;;;10437848;28;20352;-70
2022/06/22 01:43:26;;;;;;;2.27;2.07;;;23.00;27.90;;;;;;10430879;28;20225;-71
2022/06/22 01:48:33;;;;;;;2.47;2.27;;;23.00;27.80;;;;;;10429587;28;21021;-71
2022/06/22 01:53:41;;;;;;;4.90;2.50;;;22.90;27.30;;;;;;10440125;28;20224;-70
2022/06/22 01:58:54;;;;;;;2.30;2.10;;;22.90;28.20;;;;;;10432532;28;20228;-70
2022/06/22 02:04:10;;;;;;;2.67;2.10;;;22.70;28.50;;;;;;10443225;28;20236;-70
2022/06/22 02:09:17;;;;;;;2.63;2.27;;;22.60;28.70;;;;;;10438772;28;20274;-71
2022/06/22 02:14:27;;;;;;;2.40;2.20;;;22.50;28.50;;;;;;10437882;28;20229;-72
2022/06/22 02:19:31;;;;;;;3.10;2.23;;;22.40;28.90;;;;;;10425792;28;20920;-71
2022/06/22 02:24:39;;;;;;;2.60;2.30;;;22.40;28.50;;;;;;10435936;28;20233;-72
2022/06/22 02:29:47;;;;;;;2.60;2.40;;;22.40;29.20;;;;;;10436652;28;20255;-71
2022/06/22 02:34:52;;;;;;;2.70;2.50;;;22.40;29.50;;;;;;10432879;28;20221;-72
2022/06/22 02:40:00;;;;;;;3.43;2.40;;;22.40;28.90;;;;;;10433890;28;20225;-72
2022/06/22 02:45:07;;;;;;;3.30;2.00;;;22.40;29.40;;;;;;10438926;28;20228;-72
2022/06/22 02:50:18;;;;;;;3.13;2.37;;;22.40;29.30;;;;;;10432449;28;20226;-72
2022/06/22 02:55:28;;;;;;;2.50;2.10;;;22.30;29.10;;;;;;10425035;28;20237;-71
2022/06/22 03:00:35;;;;;;;3.43;2.27;;;22.20;29.00;;;;;;10428518;28;20228;-72
2022/06/22 03:05:40;;;;;;;3.00;2.20;;;22.10;29.40;;;;;;10428450;28;20232;-72
2022/06/22 03:10:50;;;;;;;2.77;2.57;;;22.10;29.00;;;;;;10436221;28;20324;-71
2022/06/22 03:15:57;;;;;;;2.17;2.07;;;22.00;30.00;;;;;;10434404;28;20273;-72
2022/06/22 03:21:03;;;;;;;5.77;2.40;;;21.90;29.80;;;;;;10437086;28;20244;-71
2022/06/22 03:26:13;;;;;;;2.47;2.30;;;21.80;29.60;;;;;;10432082;28;20666;-71
2022/06/22 03:31:24;;;;;;;3.03;2.70;;;21.80;30.10;;;;;;10435524;28;20217;-72
2022/06/22 03:36:34;;;;;;;3.17;2.87;;;21.80;31.10;;;;;;10427629;28;20221;-71
2022/06/22 03:41:42;;;;;;;3.07;2.77;;;21.90;30.80;;;;;;10429660;28;20736;-71
2022/06/22 03:46:51;;;;;;;4.83;2.70;;;21.90;30.70;;;;;;10438949;28;20229;-71
2022/06/22 03:51:59;;;;;;;2.93;2.57;;;21.90;30.80;;;;;;10430559;28;20231;-71
2022/06/22 03:57:07;;;;;;;2.63;2.43;;;21.90;30.50;;;;;;10434473;28;20220;-72
2022/06/22 04:02:12;;;;;;;3.60;2.60;;;21.90;31.10;;;;;;10441143;28;20723;-71
2022/06/22 04:07:17;;;;;;;2.70;2.43;;;21.90;31.00;;;;;;10448927;28;20217;-72
2022/06/22 04:12:26;;;;;;;2.63;2.43;;;21.90;30.40;;;;;;10441388;28;20227;-71
2022/06/22 04:17:35;;;;;;;2.70;2.40;;;21.90;31.80;;;;;;10446177;28;20260;-72
2022/06/22 04:22:43;;;;;;;3.10;2.80;;;21.80;32.30;;;;;;10440572;28;20259;-71
2022/06/22 04:27:50;;;;;;;3.93;3.30;;;21.80;32.20;;;;;;10439578;28;20240;-72
2022/06/22 04:33:01;;;;;;;4.10;2.87;;;21.80;32.00;;;;;;10437897;28;20229;-72
2022/06/22 04:38:11;;;;;;;2.93;2.73;;;21.80;33.10;;;;;;10440305;28;20228;-72
2022/06/22 04:43:15;;;;;;;3.03;2.77;;;21.80;33.00;;;;;;10437314;28;20217;-72
2022/06/22 04:48:22;;;;;;;3.23;2.93;;;21.90;31.90;;;;;;10442574;28;20225;-72
2022/06/22 04:53:33;;;;;;;3.43;3.03;;;21.90;33.20;;;;;;10440480;28;20221;-71
2022/06/22 04:58:42;;;;;;;3.57;3.00;;;21.90;33.70;;;;;;10437437;28;20910;-72
2022/06/22 05:03:48;;;;;;;3.77;3.40;;;22.00;34.20;;;;;;10439472;28;21233;-71
2022/06/22 05:08:58;;;;;;;3.40;3.07;;;21.90;33.70;;;;;;10447581;28;20414;-72
2022/06/22 05:14:01;;;;;;;4.63;3.30;;;22.00;34.40;;;;;;10449542;28;20235;-72
2022/06/22 05:19:10;;;;;;;3.67;3.10;;;22.00;33.20;;;;;;10438398;28;20237;-73
2022/06/22 05:24:20;;;;;;;3.33;3.03;;;22.10;34.30;;;;;;10442007;28;20236;-73
2022/06/22 05:29:32;;;;;;;4.67;3.30;;;22.20;35.00;;;;;;10435898;28;20230;-73
2022/06/22 05:34:39;;;;;;;3.60;3.13;;;22.30;35.20;;;;;;10441713;28;20229;-73
2022/06/22 05:39:44;;;;;;;3.53;3.17;;;22.40;34.90;;;;;;10438853;28;20233;-72
2022/06/22 05:44:48;;;;;;;4.47;3.60;;;22.50;34.30;;;;;;10428390;28;20705;-73
2022/06/22 05:49:57;;;;;;;4.33;3.57;;;22.60;34.30;;;;;;10424422;28;20603;-73
2022/06/22 05:55:06;;;;;;;3.90;3.60;;;22.70;36.40;;;;;;10434143;28;20235;-73
2022/06/22 06:00:14;;;;;;;4.33;3.77;;;22.80;35.70;;;;;;10437550;28;20242;-73
2022/06/22 06:05:24;;;;;;;4.77;4.47;;;22.90;35.60;;;;;;10442070;28;20235;-73
2022/06/22 06:10:33;;;;;;;4.73;4.00;;;23.00;36.10;;;;;;10437752;28;20602;-72
2022/06/22 06:15:38;;;;;;;3.90;3.50;;;23.10;35.70;;;;;;10437969;28;23369;-72
2022/06/22 06:20:47;;;;;;;4.20;3.90;;;23.20;35.30;;;;;;10436260;28;20229;-72
2022/06/22 06:31:18;;;;;;;3.83;3.53;;;23.40;34.60;;;;;;10439131;28;20263;-72
2022/06/22 06:36:29;;;;;;;3.73;3.43;;;23.60;35.50;;;;;;10433943;28;21061;-72
2022/06/22 06:41:38;;;;;;;4.83;3.70;;;23.70;35.70;;;;;;10423919;28;20221;-73
2022/06/22 06:46:49;;;;;;;3.77;3.47;;;23.80;35.80;;;;;;10433409;28;20340;-73
2022/06/22 06:52:26;;;;;;;4.87;3.03;;;24.00;35.80;;;;;;10433443;28;20244;-73
2022/06/22 06:57:32;;;;;;;3.50;3.20;;;24.20;36.20;;;;;;10443343;28;20235;-73
2022/06/22 07:02:38;;;;;;;5.03;3.33;;;24.30;35.10;;;;;;10430916;28;20227;-73
2022/06/22 07:07:46;;;;;;;3.90;3.50;;;24.50;35.10;;;;;;10431409;28;20232;-75
2022/06/22 07:12:56;;;;;;;3.70;3.30;;;24.70;35.80;;;;;;10420324;28;20226;-74
2022/06/22 07:18:03;;;;;;;3.60;3.30;;;24.80;35.60;;;;;;10436876;28;20228;-75
2022/06/22 07:23:13;;;;;;;4.20;3.80;;;25.00;35.00;;;;;;10422451;28;20230;-75
2022/06/22 07:28:22;;;;;;;4.03;3.63;;;25.20;35.00;;;;;;10431936;28;20221;-75
2022/06/22 07:33:32;;;;;;;4.13;3.83;;;25.40;35.00;;;;;;10434550;28;20586;-75
2022/06/22 07:38:45;;;;;;;3.67;3.37;;;25.50;35.10;;;;;;10431363;28;20234;-72
2022/06/22 07:43:54;;;;;;;5.00;3.43;;;25.70;35.90;;;;;;10435784;28;20256;-73
2022/06/22 07:49:05;;;;;;;4.47;3.73;;;25.90;34.40;;;;;;10430303;28;20232;-73
2022/06/22 07:54:14;;;;;;;3.90;3.47;;;26.10;34.40;;;;;;10431993;28;20229;-73
2022/06/22 07:59:21;;;;;;;4.27;3.87;;;26.30;34.30;;;;;;10435315;28;20229;-72
2022/06/22 08:04:31;;;;;;;4.37;3.83;;;26.30;34.10;;;;;;10430095;28;20229;-73
2022/06/22 08:09:41;;;;;;;4.70;3.97;;;26.40;34.10;;;;;;10431817;28;20233;-73
2022/06/22 08:14:47;;;;;;;3.97;3.67;;;26.30;34.80;;;;;;10434417;28;20228;-74
2022/06/22 08:19:50;;;;;;;6.23;3.90;;;26.30;34.10;;;;;;10426904;28;20716;-74
2022/06/22 08:24:57;;;;;;;4.63;3.30;;;26.40;33.80;;;;;;10429489;28;20244;-73
2022/06/22 08:30:01;;;;;;;4.20;3.80;;;26.50;34.30;;;;;;10442990;28;20241;-72
2022/06/22 08:35:09;;;;;;;4.60;3.87;;;26.60;34.00;;;;;;10433171;28;20307;-72
2022/06/22 08:40:21;;;;;;;4.10;3.70;;;26.70;33.90;;;;;;10428421;28;20240;-72
2022/06/22 08:46:03;;;;;;;5.67;3.77;;;26.80;34.20;;;;;;10431897;28;20240;-72
2022/06/22 08:51:22;;;;;;;6.40;3.77;;;26.90;33.90;;;;;;10428224;28;20225;-72
2022/06/22 08:56:36;;;;;;;6.10;3.70;;;27.00;34.40;;;;;;10420192;28;20654;-72
2022/06/22 09:01:54;;;;;;;6.17;3.40;;;27.10;34.00;;;;;;10416256;28;20225;-72
2022/06/22 09:07:18;;;;;;;3.83;3.50;;;27.20;33.90;;;;;;10436679;28;20266;-72
2022/06/22 09:12:36;;;;;;;4.10;3.70;;;27.30;33.70;;;;;;10442377;28;20228;-72
2022/06/22 09:18:00;;;;;;;6.53;3.47;;;27.40;33.40;;;;;;10441571;28;20221;-73
2022/06/22 09:23:19;;;;;;;4.00;3.47;;;27.50;33.30;;;;;;10438711;28;20220;-72
2022/06/22 09:28:27;;;;;;;6.03;3.73;;;27.40;33.70;;;;;;10446962;28;20239;-73
2022/06/22 09:33:54;;;;;;;3.87;3.50;;;27.50;33.50;;;;;;10439982;28;20228;-72
2022/06/22 09:39:30;;;;;;;4.67;3.90;;;27.50;33.30;;;;;;10424268;28;20226;-73
2022/06/22 09:45:10;;;;;;;4.07;3.63;;;27.50;33.30;;;;;;10439820;28;20254;-73
2022/06/22 09:50:35;;;;;;;7.67;5.20;;;27.50;33.10;;;;;;10407529;28;20234;-73
2022/06/22 09:56:22;;;;;;;5.53;4.77;;;27.50;33.40;;;;;;10443914;28;20245;-73
2022/06/22 10:01:35;;;;;;;6.40;5.63;;;27.40;33.80;;;;;;10431747;28;20224;-73
2022/06/22 10:06:50;;;;;;;6.10;5.50;;;27.40;34.10;;;;;;10441941;28;20700;-73
2022/06/22 10:12:09;;;;;;;8.23;5.30;;;27.40;34.70;;;;;;10437295;28;20588;-73
2022/06/22 10:17:48;;;;;;;6.00;5.40;;;27.20;34.60;;;;;;10442271;28;20267;-73
2022/06/22 10:23:29;;;;;;;6.23;5.73;;;27.20;35.00;;;;;;10422966;28;20744;-74
2022/06/22 10:29:22;;;;;;;6.90;5.53;;;27.20;35.40;;;;;;10440984;28;20312;-73
2022/06/22 10:34:42;;;;;;;6.20;5.60;;;27.10;34.40;;;;;;10429068;28;20235;-73
2022/06/22 10:45:43;;;;;;;7.63;5.93;;;27.10;34.70;;;;;;10424668;28;20229;-73
2022/06/22 10:51:00;;;;;;;5.80;5.30;;;27.20;35.20;;;;;;10440864;28;20235;-73
2022/06/22 10:56:18;;;;;;;6.10;5.50;;;27.20;35.20;;;;;;10424926;28;20287;-73
2022/06/22 11:01:42;;;;;;;6.67;5.27;;;27.30;35.30;;;;;;10433371;28;20879;-73
2022/06/22 11:07:18;;;;;;;5.97;5.37;;;27.30;35.30;;;;;;10446502;28;20763;-73
2022/06/22 11:12:34;;;;;;;7.63;5.17;;;27.40;35.20;;;;;;10455308;28;20243;-74
2022/06/22 11:17:53;;;;;;;6.57;5.67;;;27.50;35.20;;;;;;10421659;28;20225;-73
2022/06/22 11:23:05;;;;;;;5.90;5.30;;;27.50;35.00;;;;;;10415552;28;20713;-74
2022/06/22 11:33:58;;;;;;;6.47;5.13;;;27.60;34.60;;;;;;10444051;28;20233;-73
2022/06/22 11:39:25;;;;;;;5.33;4.83;;;27.60;34.70;;;;;;10469006;28;20220;-73
2022/06/22 11:50:26;;;;;;;6.73;6.03;;;27.70;34.70;;;;;;10412714;28;20229;-73
2022/06/22 11:55:36;;;;;;;6.90;6.20;;;27.70;35.10;;;;;;10415096;28;20288;-73
2022/06/22 12:00:49;;;;;;;8.17;5.80;;;27.70;34.80;;;;;;10435016;28;20231;-74
2022/06/22 12:06:11;;;;;;;6.83;6.07;;;27.70;35.00;;;;;;10424053;28;20884;-73
2022/06/22 12:11:24;;;;;;;6.73;5.40;;;27.50;35.10;;;;;;10434244;28;20580;-73
2022/06/22 12:16:33;;;;;;;7.07;5.97;;;27.60;35.10;;;;;;10434629;28;20234;-73
2022/06/22 12:21:49;;;;;;;7.13;6.17;;;27.50;35.20;;;;;;10431095;28;20313;-74
2022/06/22 12:27:04;;;;;;;7.10;6.10;;;27.60;35.00;;;;;;10422237;28;20232;-70
2022/06/22 12:32:13;;;;;;;8.13;6.73;;;27.60;35.20;;;;;;10437950;28;20692;-71
2022/06/22 12:37:23;;;;;;;6.63;6.03;;;27.70;35.20;;;;;;10427192;28;20236;-71
2022/06/22 12:42:46;;;;;;;6.70;6.10;;;27.70;35.10;;;;;;10416280;28;20232;-72
2022/06/22 12:48:10;;;;;;;6.93;6.33;;;27.60;35.00;;;;;;10422061;28;20267;-71
2022/06/22 12:53:20;;;;;;;6.80;6.17;;;27.60;36.00;;;;;;10424252;28;20229;-74
2022/06/22 12:58:28;;;;;;;7.17;6.40;;;27.60;35.60;;;;;;10426076;28;20231;-72
2022/06/22 13:03:38;;;;;;;7.30;6.70;;;27.60;35.80;;;;;;10423655;28;20700;-72
2022/06/22 13:08:42;;;;;;;7.03;6.33;;;27.50;35.60;;;;;;10429093;28;20247;-72
2022/06/22 13:14:00;;;;;;;7.97;7.17;;;27.50;35.50;;;;;;10427242;28;20319;-71
2022/06/22 13:19:17;;;;;;;6.80;6.10;;;27.40;36.20;;;;;;10414942;28;20282;-72
2022/06/22 13:24:27;;;;;;;6.63;5.63;;;27.30;36.20;;;;;;10425579;28;20228;-72
2022/06/22 13:29:36;;;;;;;8.07;7.30;;;27.30;36.40;;;;;;10422363;28;20247;-71
2022/06/22 13:34:44;;;;;;;9.93;7.67;;;27.20;37.40;;;;;;10424755;28;20531;-72
2022/06/22 13:40:05;;;;;;;7.90;7.10;;;27.20;37.10;;;;;;10429661;28;20220;-72
2022/06/22 13:45:25;;;;;;;8.23;7.43;;;27.10;37.40;;;;;;10439019;28;20217;-72
2022/06/22 13:51:06;;;;;;;8.27;7.57;;;27.00;37.50;;;;;;10424021;28;20231;-72
2022/06/22 13:56:35;;;;;;;8.40;7.60;;;27.00;37.20;;;;;;10425164;28;20308;-73
2022/06/22 14:01:44;;;;;;;9.27;8.37;;;27.00;38.30;;;;;;10435048;28;20226;-72
2022/06/22 14:06:55;;;;;;;9.70;8.80;;;26.90;38.40;;;;;;10424741;28;20234;-72
2022/06/22 14:12:04;;;;;;;10.07;9.00;;;26.90;38.90;;;;;;10430249;28;20229;-73
2022/06/22 14:17:15;;;;;;;9.60;8.70;;;26.90;39.00;;;;;;10434480;28;20221;-72
2022/06/22 14:22:26;;;;;;;10.30;9.27;;;26.90;39.90;;;;;;10435888;28;20305;-72
2022/06/22 14:27:42;;;;;;;9.23;8.33;;;27.00;39.40;;;;;;10423244;28;20766;-73
2022/06/22 14:33:14;;;;;;;10.20;9.37;;;26.90;40.20;;;;;;10436511;28;20238;-72
2022/06/22 14:38:26;;;;;;;11.57;10.33;;;26.90;39.20;;;;;;10415775;28;20904;-73
2022/06/22 14:43:35;;;;;;;10.57;9.57;;;26.80;39.90;;;;;;10427334;28;20697;-72
2022/06/22 14:48:47;;;;;;;11.70;10.63;;;26.70;40.30;;;;;;10412755;28;20240;-73
2022/06/22 14:53:55;;;;;;;12.73;11.57;;;26.60;40.90;;;;;;10435727;28;20850;-72
2022/06/22 14:59:05;;;;;;;12.13;11.17;;;26.40;40.80;;;;;;10431313;28;20737;-72
2022/06/22 15:04:23;;;;;;;10.87;9.93;;;26.30;41.80;;;;;;10445991;28;20221;-73
2022/06/22 15:09:34;;;;;;;10.33;9.33;;;26.20;42.10;;;;;;10431470;28;20224;-72
2022/06/22 15:14:44;;;;;;;8.47;7.77;;;26.20;41.70;;;;;;10428283;28;20316;-72
2022/06/22 15:19:55;;;;;;;7.93;7.33;;;26.20;40.70;;;;;;10425484;28;20233;-73
2022/06/22 15:25:13;;;;;;;8.10;7.40;;;26.20;40.80;;;;;;10427708;28;20235;-73
2022/06/22 15:30:20;;;;;;;7.80;7.10;;;26.10;41.20;;;;;;10434602;28;20209;-73
2022/06/22 15:35:28;;;;;;;7.90;6.63;;;26.10;40.80;;;;;;10436982;28;20252;-73
2022/06/22 15:40:51;;;;;;;7.47;6.87;;;26.00;41.00;;;;;;10423737;28;20233;-72
2022/06/22 15:46:04;;;;;;;6.83;6.17;;;26.00;40.90;;;;;;10434676;28;20235;-72
2022/06/22 15:51:21;;;;;;;7.47;6.87;;;26.00;41.60;;;;;;10440995;28;20229;-73
2022/06/22 15:56:30;;;;;;;8.50;7.80;;;25.90;41.50;;;;;;10445894;28;20239;-73
2022/06/22 16:01:39;;;;;;;6.97;6.37;;;25.90;41.50;;;;;;10439191;28;20225;-72
2022/06/22 16:06:57;;;;;;;6.77;6.17;;;25.90;41.50;;;;;;10428980;28;20725;-72
2022/06/22 16:17:38;;;;;;;6.23;5.63;;;25.80;41.40;;;;;;10439143;28;20227;-73
2022/06/22 16:22:46;;;;;;;7.07;5.63;;;25.70;41.40;;;;;;10440704;28;20229;-73
2022/06/22 16:27:56;;;;;;;5.80;5.20;;;25.60;41.30;;;;;;10435732;28;20233;-73
2022/06/22 16:33:03;;;;;;;5.60;5.10;;;25.50;41.20;;;;;;10438584;28;20229;-72
2022/06/22 16:38:14;;;;;;;6.23;5.70;;;25.50;41.20;;;;;;10435770;28;20217;-73
2022/06/22 16:43:26;;;;;;;7.00;5.63;;;25.50;41.20;;;;;;10436294;28;20283;-72
2022/06/22 16:48:35;;;;;;;6.50;5.07;;;25.60;41.30;;;;;;10436834;28;20231;-72
2022/06/22 16:53:45;;;;;;;5.67;5.17;;;25.60;41.30;;;;;;10439580;28;20607;-72
2022/06/22 16:58:50;;;;;;;5.27;4.63;;;25.60;41.70;;;;;;10440612;28;20236;-72
2022/06/22 17:04:00;;;;;;;5.53;5.03;;;25.60;41.30;;;;;;10427698;28;20232;-72
2022/06/22 17:09:13;;;;;;;6.50;4.77;;;25.50;41.20;;;;;;10445709;28;20292;-72
2022/06/22 17:14:22;;;;;;;4.70;4.10;;;25.50;41.20;;;;;;10446254;28;20235;-72
2022/06/22 17:19:32;;;;;;;5.23;4.73;;;25.40;41.20;;;;;;10436585;28;20723;-72
2022/06/22 17:24:55;;;;;;;5.17;4.70;;;25.40;41.20;;;;;;10435229;28;20237;-72
2022/06/22 17:30:03;;;;;;;4.93;4.43;;;25.30;41.10;;;;;;10422541;28;20720;-73
2022/06/22 17:35:26;;;;;;;7.17;4.53;;;25.30;42.00;;;;;;10433867;28;20232;-73
2022/06/22 17:40:48;;;;;;;6.43;4.93;;;25.40;42.40;;;;;;10429257;28;20224;-73
2022/06/22 17:46:01;;;;;;;5.07;4.57;;;25.40;42.40;;;;;;10431121;28;20244;-73
2022/06/22 17:51:06;;;;;;;4.53;4.13;;;25.50;42.30;;;;;;10436834;28;20221;-73
2022/06/22 17:56:16;;;;;;;4.50;4.10;;;25.60;41.70;;;;;;10426771;28;20240;-73
2022/06/22 18:01:27;;;;;;;5.53;4.50;;;25.70;42.30;;;;;;10429689;28;20902;-73
2022/06/22 18:06:36;;;;;;;4.57;4.17;;;25.70;42.30;;;;;;10435419;28;20229;-73
2022/06/22 18:11:44;;;;;;;5.77;4.43;;;25.80;42.00;;;;;;10429813;28;20602;-72
2022/06/22 18:16:50;;;;;;;4.70;4.20;;;25.90;42.20;;;;;;10429932;28;20226;-73
2022/06/22 18:22:01;;;;;;;4.83;4.33;;;25.90;41.80;;;;;;10429652;28;20227;-73
2022/06/22 18:27:06;;;;;;;5.63;4.30;;;26.00;42.60;;;;;;10434649;28;20228;-73
2022/06/22 18:32:13;;;;;;;5.87;5.00;;;26.00;42.00;;;;;;10431382;28;20794;-74
2022/06/22 18:37:24;;;;;;;7.00;4.90;;;26.00;42.10;;;;;;10421951;28;20622;-73
2022/06/22 18:42:39;;;;;;;5.07;4.53;;;26.00;42.60;;;;;;10433914;28;20760;-73
2022/06/22 18:47:49;;;;;;;5.67;5.00;;;26.00;42.90;;;;;;10426727;28;20240;-74
2022/06/22 18:53:02;;;;;;;6.87;6.17;;;25.90;42.90;;;;;;10428475;28;20229;-76
2022/06/22 18:58:16;;;;;;;7.80;5.77;;;25.90;42.70;;;;;;10427128;28;20324;-73
2022/06/22 19:03:24;;;;;;;6.03;5.63;;;25.70;42.90;;;;;;10426623;28;20248;-73
2022/06/22 19:08:32;;;;;;;6.93;5.20;;;25.60;42.60;;;;;;10414913;28;20232;-72
2022/06/22 19:13:41;;;;;;;5.07;4.07;;;25.60;43.10;;;;;;10422149;28;20569;-73
2022/06/22 19:19:12;;;;;;;5.70;5.20;;;25.50;42.70;;;;;;10428411;28;20619;-74
2022/06/22 19:24:32;;;;;;;6.77;5.13;;;25.50;43.00;;;;;;10422932;28;20777;-72
2022/06/22 19:29:39;;;;;;;6.27;5.50;;;25.40;43.10;;;;;;10427190;28;20231;-72
2022/06/22 19:34:56;;;;;;;5.30;4.77;;;25.40;42.80;;;;;;10430371;28;20244;-74
2022/06/22 19:40:09;;;;;;;6.47;5.43;;;25.40;43.10;;;;;;10433205;28;20271;-74
2022/06/22 19:45:24;;;;;;;8.53;6.10;;;25.30;43.00;;;;;;10426165;28;20235;-73
2022/06/22 19:50:54;;;;;;;6.93;6.30;;;25.20;43.60;;;;;;10431046;28;20221;-72
2022/06/22 19:56:07;;;;;;;7.03;5.97;;;25.20;43.40;;;;;;10438508;28;20729;-74
2022/06/22 20:01:13;;;;;;;7.47;6.67;;;25.10;43.60;;;;;;10437121;28;20727;-73
2022/06/22 20:06:25;;;;;;;9.67;6.90;;;25.10;43.60;;;;;;10429435;28;20255;-74
2022/06/22 20:11:39;;;;;;;7.80;6.30;;;25.10;44.10;;;;;;10425988;28;20225;-73
2022/06/22 20:16:52;;;;;;;8.00;7.30;;;25.00;44.10;;;;;;10420712;28;20233;-75
2022/06/22 20:22:11;;;;;;;8.53;7.70;;;25.00;44.50;;;;;;10421297;28;20221;-75
2022/06/22 20:27:30;;;;;;;9.23;7.80;;;24.90;44.40;;;;;;10424545;28;20224;-76
2022/06/22 20:32:41;;;;;;;12.67;8.40;;;24.80;44.60;;;;;;10429725;28;20740;-76
2022/06/22 20:37:49;;;;;;;10.17;9.27;;;24.70;44.80;;;;;;10426543;28;20233;-77
2022/06/22 20:43:05;;;;;;;10.43;9.43;;;24.60;44.30;;;;;;10428478;28;20645;-76
2022/06/22 20:48:21;;;;;;;10.50;9.30;;;24.50;45.50;;;;;;10424575;28;20702;-76
2022/06/22 20:53:30;;;;;;;11.03;8.43;;;24.40;45.80;;;;;;10434598;28;20315;-76
2022/06/22 20:58:37;;;;;;;9.27;8.33;;;24.30;45.60;;;;;;10427461;28;20260;-75
2022/06/22 21:03:45;;;;;;;10.77;9.67;;;24.30;45.60;;;;;;10436614;28;20224;-75
2022/06/22 21:08:55;;;;;;;11.53;10.47;;;24.40;46.00;;;;;;10428005;28;20248;-73
2022/06/22 21:14:20;;;;;;;11.60;10.50;;;24.30;45.90;;;;;;10432542;28;20231;-74
2022/06/22 21:19:52;;;;;;;11.83;10.73;;;24.30;46.00;;;;;;10433752;28;20220;-75
2022/06/22 21:25:19;;;;;;;11.73;10.60;;;24.10;46.00;;;;;;10420548;28;20666;-74
2022/06/22 21:30:25;;;;;;;12.13;11.00;;;24.00;46.50;;;;;;10429578;28;20236;-74
2022/06/22 21:35:37;;;;;;;12.10;10.90;;;23.90;46.30;;;;;;10431075;28;20227;-73
2022/06/22 21:40:49;;;;;;;12.03;10.90;;;23.90;47.40;;;;;;10423914;28;20237;-74
2022/06/22 21:46:11;;;;;;;11.00;10.00;;;24.00;47.60;;;;;;10425944;28;20249;-74
2022/06/22 21:51:26;;;;;;;9.13;8.33;;;24.00;47.30;;;;;;10430741;28;20224;-74
2022/06/22 21:56:53;;;;;;;11.20;10.27;;;24.10;46.50;;;;;;10432755;28;20235;-74
2022/06/22 22:02:05;;;;;;;11.47;10.43;;;24.10;47.10;;;;;;10421257;28;20237;-74
2022/06/22 22:07:11;;;;;;;11.67;10.13;;;24.20;46.90;;;;;;10429677;28;20725;-74
2022/06/22 22:12:18;;;;;;;11.50;10.50;;;24.20;46.00;;;;;;10427024;28;20712;-74
2022/06/22 22:17:26;;;;;;;12.27;11.07;;;24.20;46.40;;;;;;10428735;28;20226;-74
2022/06/22 22:22:33;;;;;;;11.47;10.37;;;24.20;46.50;;;;;;10434774;28;20228;-74
2022/06/22 22:27:40;;;;;;;10.97;9.87;;;24.20;46.40;;;;;;10428253;28;20233;-75
2022/06/22 22:32:44;;;;;;;10.17;9.27;;;24.20;46.20;;;;;;10430366;28;20628;-74
2022/06/22 22:37:50;;;;;;;11.97;10.77;;;24.20;45.60;;;;;;10426652;28;20237;-75
2022/06/22 22:42:55;;;;;;;11.33;10.30;;;24.20;46.50;;;;;;10429056;28;20221;-74
2022/06/22 22:48:00;;;;;;;12.43;11.23;;;24.20;46.10;;;;;;10427461;28;20320;-74
2022/06/22 22:53:13;;;;;;;13.73;11.57;;;24.20;46.50;;;;;;10424850;28;20690;-74
2022/06/22 22:58:25;;;;;;;11.40;10.30;;;24.20;47.10;;;;;;10426430;28;20235;-74
2022/06/22 23:03:32;;;;;;;11.37;10.40;;;24.20;47.00;;;;;;10424400;28;20228;-74
2022/06/22 23:08:37;;;;;;;11.90;11.00;;;24.20;46.80;;;;;;10429137;28;20225;-74
2022/06/22 23:13:45;;;;;;;10.33;9.53;;;24.20;46.70;;;;;;10436324;28;20244;-74
2022/06/22 23:18:51;;;;;;;11.70;10.60;;;24.20;46.80;;;;;;10429647;28;20232;-74
2022/06/22 23:23:57;;;;;;;13.60;12.27;;;24.20;46.90;;;;;;10430961;28;20224;-75
2022/06/22 23:29:04;;;;;;;15.00;12.57;;;24.20;47.30;;;;;;10427551;28;20236;-74
2022/06/22 23:34:23;;;;;;;13.90;12.60;;;24.10;47.00;;;;;;10426669;28;20229;-76
2022/06/22 23:39:31;;;;;;;12.97;11.87;;;24.00;48.00;;;;;;10424122;28;20229;-75
2022/06/22 23:44:35;;;;;;;13.83;12.40;;;23.90;47.90;;;;;;10429179;28;20233;-75
2022/06/22 23:49:41;;;;;;;15.27;13.70;;;23.80;47.10;;;;;;10435335;28;21397;-75
2022/06/22 23:54:46;;;;;;;13.27;12.07;;;23.70;47.70;;;;;;10436597;28;20949;-74
2022/06/22 23:59:50;;;;;;;13.50;12.30;;;23.70;48.00;;;;;;10430143;28;20232;-74
